createdAt,value
2022-11-28T00:02:57.780Z,36.17
2022-11-28T00:06:03.380Z,41.63
2022-11-28T00:09:06.980Z,38.88
2022-11-28T00:12:10.915Z,36.83
2022-11-28T00:15:13.466Z,40.53
2022-11-28T00:18:15.973Z,38.88
2022-11-28T00:21:19.223Z,35.80
2022-11-28T00:24:21.802Z,38.00
2022-11-28T00:27:25.707Z,37.92
2022-11-28T00:30:28.817Z,40.80
2022-11-28T00:33:31.447Z,38.00
2022-11-28T00:36:52.362Z,47.43
2022-11-28T00:39:54.980Z,40.70
2022-11-28T00:42:58.892Z,40.80
2022-11-28T00:46:02.028Z,44.28
2022-11-28T00:49:04.575Z,47.45
2022-11-28T00:52:07.245Z,45.53
2022-11-28T00:55:09.930Z,46.70
2022-11-28T00:58:13.820Z,45.75
2022-11-28T01:01:18.546Z,52.60
2022-11-28T01:04:21.294Z,48.13
2022-11-28T01:07:23.821Z,47.80
2022-11-28T01:10:27.230Z,42.15
2022-11-28T01:13:31.267Z,54.30
2022-11-28T01:16:33.900Z,46.65
2022-11-28T01:19:36.639Z,58.97
2022-11-28T01:22:39.134Z,52.57
2022-11-28T01:25:41.709Z,51.90
2022-11-28T01:28:46.102Z,49.15
2022-11-28T01:31:48.724Z,61.53
2022-11-28T01:34:51.332Z,57.03
2022-11-28T01:37:53.889Z,66.57
2022-11-28T01:40:56.901Z,63.88
2022-11-28T01:44:06.361Z,86.47
2022-11-28T01:47:08.959Z,77.50
2022-11-28T01:50:12.876Z,69.90
2022-11-28T01:53:17.281Z,89.50
2022-11-28T01:56:23.373Z,88.55
2022-11-28T01:59:30.460Z,63.88
2022-11-28T02:02:37.302Z,68.40
2022-11-28T02:05:40.318Z,64.85
2022-11-28T02:08:43.271Z,62.37
2022-11-28T02:12:02.201Z,75.53
2022-11-28T02:15:18.638Z,79.78
2022-11-28T02:18:39.013Z,86.75
2022-11-28T02:21:59.568Z,83.95
2022-11-28T02:25:35.722Z,68.93
2022-11-28T02:29:02.459Z,66.57
2022-11-28T02:32:22.217Z,88.03
2022-11-28T02:35:33.505Z,90.55
2022-11-28T02:38:48.904Z,80.85
2022-11-28T02:42:04.212Z,87.53
2022-11-28T02:45:12.086Z,82.30
2022-11-28T02:48:23.415Z,107.90
2022-11-28T02:51:31.491Z,67.53
2022-11-28T02:54:34.697Z,100.72
2022-11-28T02:57:38.445Z,69.93
2022-11-28T03:00:45.764Z,76.53
2022-11-28T03:04:17.604Z,75.40
2022-11-28T03:07:35.134Z,82.65
2022-11-28T03:10:44.926Z,77.60
2022-11-28T03:13:55.037Z,80.97
2022-11-28T03:17:08.656Z,90.68
2022-11-28T03:20:22.832Z,69.13
2022-11-28T03:23:33.903Z,80.13
2022-11-28T03:26:45.016Z,91.35
2022-11-28T03:29:51.244Z,106.40
2022-11-28T03:32:56.865Z,108.85
2022-11-28T03:36:06.961Z,83.25
2022-11-28T03:39:15.001Z,96.45
2022-11-28T03:42:21.592Z,91.85
2022-11-28T03:45:26.647Z,104.27
2022-11-28T03:48:33.853Z,90.45
2022-11-28T03:51:43.239Z,113.65
2022-11-28T03:54:51.715Z,110.38
2022-11-28T03:58:00.039Z,88.60
2022-11-28T04:01:09.490Z,117.20
2022-11-28T04:04:19.794Z,85.57
2022-11-28T04:07:32.347Z,105.00
2022-11-28T04:10:41.956Z,128.57
2022-11-28T04:13:51.458Z,132.13
2022-11-28T04:17:00.784Z,119.27
2022-11-28T04:20:12.300Z,90.18
2022-11-28T04:23:19.991Z,101.63
2022-11-28T04:26:28.381Z,81.50
2022-11-28T04:29:35.648Z,74.20
2022-11-28T04:32:43.239Z,72.37
2022-11-28T04:35:49.716Z,67.60
2022-11-28T04:38:56.598Z,53.85
2022-11-28T04:42:05.551Z,65.82
2022-11-28T04:45:14.096Z,54.53
2022-11-28T04:48:17.358Z,54.43
2022-11-28T04:51:25.095Z,49.60
2022-11-28T04:54:36.725Z,43.80
2022-11-28T04:57:41.535Z,46.80
2022-11-28T05:00:47.300Z,41.35
2022-11-28T05:03:50.091Z,67.60
2022-11-28T05:07:01.309Z,89.03
2022-11-28T05:10:06.562Z,42.17
2022-11-28T05:13:09.367Z,56.78
2022-11-28T05:16:13.071Z,38.97
2022-11-28T05:19:16.150Z,42.67
2022-11-28T05:22:18.753Z,45.15
2022-11-28T05:25:22.789Z,51.70
2022-11-28T05:28:25.433Z,56.00
2022-11-28T05:31:28.719Z,49.20
2022-11-28T05:34:31.281Z,52.40
2022-11-28T05:37:34.233Z,49.10
2022-11-28T05:40:44.045Z,63.47
2022-11-28T05:44:06.099Z,61.00
2022-11-28T05:47:08.781Z,60.92
2022-11-28T05:50:12.435Z,52.70
2022-11-28T05:53:15.020Z,66.85
2022-11-28T05:56:20.695Z,93.40
2022-11-28T05:59:23.196Z,71.22
2022-11-28T06:02:26.083Z,113.38
2022-11-28T06:05:42.211Z,109.07
2022-11-28T06:08:46.997Z,92.78
2022-11-28T06:11:50.953Z,108.30
2022-11-28T06:14:53.582Z,99.30
2022-11-28T06:17:56.138Z,82.50
2022-11-28T06:21:01.616Z,123.43
2022-11-28T06:24:04.828Z,105.47
2022-11-28T06:27:08.735Z,114.75
2022-11-28T06:30:11.709Z,107.72
2022-11-28T06:33:15.165Z,100.60
2022-11-28T06:36:19.375Z,107.67
2022-11-28T06:39:22.124Z,86.50
2022-11-28T06:42:26.546Z,100.15
2022-11-28T06:45:29.658Z,131.40
2022-11-28T06:48:32.631Z,125.45
2022-11-28T06:51:38.728Z,80.87
2022-11-28T06:54:42.119Z,96.97
2022-11-28T06:57:47.044Z,98.38
2022-11-28T07:00:49.689Z,84.78
2022-11-28T07:03:54.545Z,91.75
2022-11-28T07:06:57.199Z,100.43
2022-11-28T07:10:00.376Z,108.95
2022-11-28T07:13:05.753Z,113.80
2022-11-28T07:16:15.944Z,85.75
2022-11-28T07:19:23.028Z,99.28
2022-11-28T07:22:26.798Z,69.53
2022-11-28T07:25:29.712Z,76.57
2022-11-28T07:28:35.035Z,73.97
2022-11-28T07:31:37.873Z,63.40
2022-11-28T07:34:44.644Z,60.60
2022-11-28T07:37:50.282Z,59.47
2022-11-28T07:40:53.737Z,51.80
2022-11-28T07:43:59.702Z,50.50
2022-11-28T07:47:02.611Z,47.47
2022-11-28T07:50:06.465Z,46.65
2022-11-28T07:53:09.573Z,52.53
2022-11-28T07:56:15.176Z,51.67
2022-11-28T07:59:18.972Z,45.70
2022-11-28T08:02:21.594Z,53.08
2022-11-28T08:05:24.120Z,48.75
2022-11-28T08:08:26.697Z,64.87
2022-11-28T08:11:30.719Z,51.65
2022-11-28T08:14:34.634Z,41.17
2022-11-28T08:17:37.130Z,41.13
2022-11-28T08:20:39.777Z,50.88
2022-11-28T08:23:44.015Z,44.07
2022-11-28T08:26:46.769Z,52.08
2022-11-28T08:29:53.519Z,53.95
2022-11-28T08:32:56.554Z,48.60
2022-11-28T08:35:59.001Z,41.85
2022-11-28T08:39:22.926Z,35.20
2022-11-28T08:42:28.426Z,28.83
2022-11-28T08:45:50.990Z,43.58
2022-11-28T08:48:54.889Z,64.60
2022-11-28T08:51:57.421Z,45.50
2022-11-28T08:55:00.468Z,42.77
2022-11-28T08:58:04.080Z,39.55
2022-11-28T09:01:16.615Z,34.67
2022-11-28T09:04:21.057Z,35.50
2022-11-28T09:07:24.485Z,41.53
2022-11-28T09:10:27.111Z,37.83
2022-11-28T09:13:30.002Z,36.00
2022-11-28T09:16:34.652Z,37.97
2022-11-28T09:19:37.793Z,34.22
2022-11-28T09:22:42.686Z,34.28
2022-11-28T09:25:45.756Z,36.37
2022-11-28T09:28:49.890Z,34.38
2022-11-28T09:31:54.240Z,37.65
2022-11-28T09:34:57.802Z,36.92
2022-11-28T09:38:00.425Z,35.80
2022-11-28T09:41:04.094Z,44.23
2022-11-28T09:44:14.599Z,40.65
2022-11-28T09:47:23.179Z,35.25
2022-11-28T09:50:32.950Z,33.03
2022-11-28T09:53:46.124Z,27.65
2022-11-28T09:56:50.483Z,33.27
2022-11-28T09:59:53.265Z,33.25
2022-11-28T10:03:23.720Z,33.80
2022-11-28T10:06:34.291Z,26.42
2022-11-28T10:09:44.912Z,32.42
2022-11-28T10:12:54.335Z,33.50
2022-11-28T10:16:03.961Z,37.17
2022-11-28T10:19:31.542Z,34.28
2022-11-28T10:22:40.510Z,38.78
2022-11-28T10:25:49.599Z,39.65
2022-11-28T10:28:56.453Z,37.83
2022-11-28T10:32:02.021Z,36.63
2022-11-28T10:35:14.283Z,42.08
2022-11-28T10:38:17.669Z,36.45
2022-11-28T10:41:28.853Z,38.10
2022-11-28T10:44:41.134Z,32.20
2022-11-28T10:48:23.161Z,39.97
2022-11-28T10:51:38.726Z,35.70
2022-11-28T10:55:06.810Z,36.90
2022-11-28T10:58:22.156Z,35.80
2022-11-28T11:01:34.746Z,37.93
2022-11-28T11:04:38.806Z,37.25
2022-11-28T11:07:49.778Z,34.72
2022-11-28T11:10:58.001Z,36.95
2022-11-28T11:14:05.478Z,35.25
2022-11-28T11:17:23.857Z,34.03
2022-11-28T11:20:33.816Z,37.55
2022-11-28T11:23:48.937Z,34.40
2022-11-28T11:27:03.185Z,30.92
2022-11-28T11:30:18.084Z,30.42
2022-11-28T11:33:20.775Z,32.07
2022-11-28T11:36:28.928Z,32.58
2022-11-28T11:39:33.051Z,32.70
2022-11-28T11:42:37.091Z,35.72
2022-11-28T11:45:39.925Z,32.47
2022-11-28T11:48:44.281Z,30.13
2022-11-28T11:51:56.086Z,35.35
2022-11-28T11:55:10.060Z,33.25
2022-11-28T11:58:16.649Z,30.50
2022-11-28T12:01:22.134Z,30.75
2022-11-28T12:04:45.072Z,31.50
2022-11-28T12:07:56.632Z,29.90
2022-11-28T12:11:12.823Z,30.48
2022-11-28T12:14:29.268Z,28.08
2022-11-28T12:21:14.025Z,33.60
2022-11-28T12:24:24.604Z,33.13
2022-11-28T12:27:41.677Z,31.95
2022-11-28T12:31:00.804Z,31.00
2022-11-28T12:34:12.462Z,29.20
2022-11-28T12:37:42.081Z,32.40
2022-11-28T12:41:11.900Z,32.17
2022-11-28T12:44:26.235Z,34.10
2022-11-28T12:47:41.678Z,33.95
2022-11-28T12:50:47.234Z,33.05
2022-11-28T12:54:05.654Z,36.43
2022-11-28T12:57:15.455Z,37.97
2022-11-28T13:00:24.222Z,33.95
2022-11-28T13:03:41.608Z,31.17
2022-11-28T13:06:55.869Z,29.00
2022-11-28T13:10:08.300Z,30.67
2022-11-28T13:13:16.692Z,31.50
2022-11-28T13:16:28.624Z,30.65
2022-11-28T13:19:43.997Z,32.03
2022-11-28T13:23:05.823Z,38.08
2022-11-28T13:26:12.394Z,32.87
2022-11-28T13:29:27.500Z,33.97
2022-11-28T13:32:39.774Z,30.08
2022-11-28T13:35:46.696Z,31.58
2022-11-28T13:39:11.976Z,33.88
2022-11-28T13:45:48.603Z,39.65
2022-11-28T13:49:15.720Z,43.22
2022-11-28T13:52:32.440Z,41.10
2022-11-28T13:55:40.556Z,40.67
2022-11-28T13:58:51.270Z,52.13
2022-11-28T14:01:58.092Z,52.15
2022-11-28T14:05:05.022Z,44.60
2022-11-28T14:08:25.648Z,41.30
2022-11-28T14:11:54.058Z,37.63
2022-11-28T14:15:09.895Z,39.07
2022-11-28T14:18:55.603Z,35.17
2022-11-28T14:22:15.502Z,40.08
2022-11-28T14:25:22.847Z,38.20
2022-11-28T14:28:31.440Z,34.42
2022-11-28T14:31:37.054Z,38.20
2022-11-28T14:34:43.848Z,39.03
2022-11-28T14:37:53.760Z,36.35
2022-11-28T14:41:05.306Z,35.20
2022-11-28T14:44:45.744Z,36.63
2022-11-28T14:48:06.608Z,39.47
2022-11-28T14:51:09.489Z,37.28
2022-11-28T14:54:22.012Z,39.67
2022-11-28T14:57:27.680Z,40.47
2022-11-28T15:00:38.344Z,39.28
2022-11-28T15:03:53.706Z,38.83
2022-11-28T15:06:59.620Z,42.17
2022-11-28T15:10:10.276Z,38.38
2022-11-28T15:13:35.740Z,37.38
2022-11-28T15:16:46.630Z,43.45
2022-11-28T15:19:56.607Z,44.60
2022-11-28T15:22:59.185Z,45.22
2022-11-28T15:26:03.446Z,41.90
2022-11-28T15:29:10.304Z,42.67
2022-11-28T15:32:13.793Z,45.53
2022-11-28T15:35:20.305Z,43.17
2022-11-28T15:38:23.847Z,39.35
2022-11-28T15:41:27.982Z,38.60
2022-11-28T15:44:31.437Z,46.20
2022-11-28T15:47:34.277Z,56.33
2022-11-28T15:50:36.831Z,58.87
2022-11-28T15:53:40.832Z,41.92
2022-11-28T15:56:57.353Z,41.08
2022-11-28T16:00:01.551Z,43.75
2022-11-28T16:03:05.681Z,41.20
2022-11-28T16:06:08.623Z,51.20
2022-11-28T16:09:26.859Z,52.95
2022-11-28T16:12:31.039Z,45.35
2022-11-28T16:15:33.863Z,54.13
2022-11-28T16:18:36.785Z,53.60
2022-11-28T16:21:45.310Z,48.73
2022-11-28T16:24:50.078Z,62.40
2022-11-28T16:27:54.145Z,63.70
2022-11-28T16:30:57.178Z,56.92
2022-11-28T16:34:01.173Z,49.03
2022-11-28T16:37:10.788Z,50.13
2022-11-28T16:40:17.029Z,40.78
2022-11-28T16:43:25.032Z,45.50
2022-11-28T16:46:32.336Z,46.30
2022-11-28T16:49:38.560Z,49.55
2022-11-28T16:52:47.213Z,39.47
2022-11-28T16:55:50.694Z,54.13
2022-11-28T16:59:00.486Z,50.83
2022-11-28T17:02:04.305Z,45.42
2022-11-28T17:05:09.734Z,47.60
2022-11-28T17:08:12.162Z,43.80
2022-11-28T17:11:18.172Z,48.13
2022-11-28T17:14:22.138Z,45.53
2022-11-28T17:17:24.970Z,46.17
2022-11-28T17:20:27.547Z,44.22
2022-11-28T17:23:30.320Z,43.97
2022-11-28T17:26:33.769Z,41.72
2022-11-28T17:29:38.612Z,46.90
2022-11-28T17:32:41.281Z,43.13
2022-11-28T17:35:46.946Z,47.72
2022-11-28T17:38:49.706Z,50.67
2022-11-28T17:41:52.152Z,44.28
2022-11-28T17:44:58.680Z,43.45
2022-11-28T17:48:03.026Z,44.40
2022-11-28T17:51:06.399Z,39.13
2022-11-28T17:54:10.962Z,37.73
2022-11-28T17:57:13.663Z,42.17
2022-11-28T18:00:18.246Z,36.05
2022-11-28T18:03:21.192Z,42.80
2022-11-28T18:06:24.194Z,41.45
2022-11-28T18:09:26.972Z,47.80
2022-11-28T18:12:29.536Z,44.00
2022-11-28T18:15:35.742Z,43.40
2022-11-28T18:18:39.620Z,41.85
2022-11-28T18:21:42.779Z,44.20
2022-11-28T18:24:45.384Z,40.10
2022-11-28T18:27:48.479Z,42.45
2022-11-28T18:30:52.606Z,40.33
2022-11-28T18:34:01.445Z,41.05
2022-11-28T18:37:05.109Z,35.22
2022-11-28T18:40:09.534Z,40.67
2022-11-28T18:43:13.203Z,43.42
2022-11-28T18:46:20.870Z,49.80
2022-11-28T18:49:24.619Z,43.33
2022-11-28T18:52:28.031Z,48.55
2022-11-28T18:55:30.668Z,40.97
2022-11-28T18:58:34.208Z,42.20
2022-11-28T19:01:38.321Z,39.25
2022-11-28T19:04:41.143Z,40.67
2022-11-28T19:07:43.916Z,42.60
2022-11-28T19:10:48.138Z,39.73
2022-11-28T19:13:53.444Z,44.97
2022-11-28T19:16:57.725Z,40.65
2022-11-28T19:20:00.993Z,43.30
2022-11-28T19:23:03.963Z,42.28
2022-11-28T19:26:08.313Z,44.67
2022-11-28T19:29:11.696Z,38.10
2022-11-28T19:32:16.964Z,45.35
2022-11-28T19:35:19.698Z,48.72
2022-11-28T19:38:22.782Z,55.92
2022-11-28T19:41:27.641Z,51.97
2022-11-28T19:44:30.626Z,51.05
2022-11-28T19:47:35.467Z,46.50
2022-11-28T19:50:39.176Z,52.40
2022-11-28T19:53:43.315Z,47.95
2022-11-28T19:56:47.342Z,51.00
2022-11-28T19:59:50.652Z,48.63
2022-11-28T20:02:54.786Z,46.90
2022-11-28T20:05:57.548Z,44.75
2022-11-28T20:09:04.626Z,44.17
2022-11-28T20:12:07.590Z,48.70
2022-11-28T20:15:16.689Z,43.30
2022-11-28T20:18:22.276Z,37.03
2022-11-28T20:21:24.969Z,46.30
2022-11-28T20:24:30.099Z,44.80
2022-11-28T20:27:33.727Z,43.53
2022-11-28T20:30:36.741Z,45.88
2022-11-28T20:33:40.878Z,50.42
2022-11-28T20:36:44.085Z,45.85
2022-11-28T20:39:47.711Z,43.05
2022-11-28T20:42:52.274Z,46.93
2022-11-28T20:45:55.688Z,46.72
2022-11-28T20:49:01.938Z,49.53
2022-11-28T20:52:04.968Z,46.75
2022-11-28T20:55:08.459Z,39.20
2022-11-28T20:58:11.164Z,40.40
2022-11-28T21:01:15.346Z,40.72
2022-11-28T21:04:19.407Z,40.50
2022-11-28T21:07:25.267Z,48.60
2022-11-28T21:10:28.065Z,42.85
2022-11-28T21:13:31.794Z,42.23
2022-11-28T21:16:34.986Z,40.75
2022-11-28T21:19:39.129Z,48.42
2022-11-28T21:22:41.930Z,50.20
2022-11-28T21:25:44.809Z,53.13
2022-11-28T21:28:50.837Z,51.60
2022-11-28T21:31:54.173Z,47.45
2022-11-28T21:35:03.881Z,45.17
2022-11-28T21:38:07.654Z,47.70
2022-11-28T21:41:11.240Z,43.58
2022-11-28T21:44:14.068Z,42.03
2022-11-28T21:47:16.577Z,41.80
2022-11-28T21:50:20.406Z,45.40
2022-11-28T21:53:23.077Z,47.35
2022-11-28T21:56:26.021Z,43.17
2022-11-28T21:59:29.307Z,43.03
2022-11-28T22:02:31.831Z,37.55
2022-11-28T22:05:36.043Z,46.15
2022-11-28T22:08:38.612Z,45.00
2022-11-28T22:11:41.123Z,43.60
2022-11-28T22:14:43.624Z,42.50
2022-11-28T22:17:46.346Z,43.47
2022-11-28T22:20:53.106Z,43.55
2022-11-28T22:23:56.394Z,45.55
2022-11-28T22:26:59.776Z,43.70
2022-11-28T22:30:04.249Z,44.90
2022-11-28T22:33:06.648Z,60.20
2022-11-28T22:36:15.890Z,50.38
2022-11-28T22:39:19.044Z,51.08
2022-11-28T22:42:21.486Z,47.50
2022-11-28T22:45:24.067Z,46.30
2022-11-28T22:48:28.609Z,52.08
2022-11-28T22:51:32.543Z,49.50
2022-11-28T22:54:36.242Z,48.72
2022-11-28T22:57:38.882Z,45.83
2022-11-28T23:00:42.105Z,46.40
2022-11-28T23:03:44.882Z,44.03
2022-11-28T23:06:48.778Z,43.40
2022-11-28T23:09:52.426Z,45.80
2022-11-28T23:12:54.939Z,48.70
2022-11-28T23:16:08.597Z,44.63
2022-11-28T23:19:13.123Z,46.35
2022-11-28T23:22:16.918Z,54.25
2022-11-28T23:25:19.410Z,48.08
2022-11-28T23:28:21.956Z,44.00
2022-11-28T23:31:26.370Z,54.03
2022-11-28T23:34:30.434Z,60.40
2022-11-28T23:37:39.374Z,64.80
2022-11-28T23:40:41.892Z,71.35
2022-11-28T23:43:44.415Z,89.97
2022-11-28T23:46:47.471Z,76.67
2022-11-28T23:49:49.864Z,73.18
2022-11-28T23:52:53.650Z,73.75
2022-11-28T23:56:02.356Z,66.22
2022-11-28T23:59:07.805Z,74.65
